sensor_id;sensor_type;location;lat;lon;timestamp;pressure;altitude;pressure_sealevel;temperature;humidity
65880;BME280;52661;51.364;6.054;2023-02-27T00:00:57;102403.66;;;0.49;100.00
65880;BME280;52661;51.364;6.054;2023-02-27T00:03:23;102404.00;;;0.42;100.00
65880;BME280;52661;51.364;6.054;2023-02-27T00:05:49;102395.44;;;0.40;100.00
65880;BME280;52661;51.364;6.054;2023-02-27T00:08:14;102402.94;;;0.38;100.00
65880;BME280;52661;51.364;6.054;2023-02-27T00:10:39;102397.13;;;0.31;100.00
65880;BME280;52661;51.364;6.054;2023-02-27T00:13:05;102394.06;;;0.14;100.00
65880;BME280;52661;51.364;6.054;2023-02-27T00:15:31;102397.72;;;0.23;100.00
65880;BME280;52661;51.364;6.054;2023-02-27T00:17:59;102395.84;;;0.24;100.00
65880;BME280;52661;51.364;6.054;2023-02-27T00:20:24;102389.19;;;0.21;100.00
65880;BME280;52661;51.364;6.054;2023-02-27T00:22:50;102395.38;;;0.12;100.00
65880;BME280;52661;51.364;6.054;2023-02-27T00:25:16;102391.91;;;0.11;100.00
65880;BME280;52661;51.364;6.054;2023-02-27T00:27:41;102405.06;;;0.03;100.00
65880;BME280;52661;51.364;6.054;2023-02-27T00:30:10;102393.28;;;0.09;100.00
65880;BME280;52661;51.364;6.054;2023-02-27T00:32:35;102394.06;;;0.09;100.00
65880;BME280;52661;51.364;6.054;2023-02-27T00:35:03;102399.06;;;0.21;100.00
65880;BME280;52661;51.364;6.054;2023-02-27T00:37:28;102391.88;;;0.21;100.00
65880;BME280;52661;51.364;6.054;2023-02-27T00:39:54;102389.91;;;0.32;100.00
65880;BME280;52661;51.364;6.054;2023-02-27T00:42:19;102393.91;;;0.34;100.00
65880;BME280;52661;51.364;6.054;2023-02-27T00:44:44;102396.53;;;0.39;100.00
65880;BME280;52661;51.364;6.054;2023-02-27T00:47:10;102402.22;;;0.28;100.00
65880;BME280;52661;51.364;6.054;2023-02-27T00:49:35;102406.50;;;0.29;100.00
65880;BME280;52661;51.364;6.054;2023-02-27T00:52:00;102401.44;;;0.27;100.00
65880;BME280;52661;51.364;6.054;2023-02-27T00:54:25;102400.59;;;0.32;100.00
65880;BME280;52661;51.364;6.054;2023-02-27T00:56:51;102403.03;;;0.28;100.00
65880;BME280;52661;51.364;6.054;2023-02-27T00:59:16;102403.31;;;0.22;100.00
65880;BME280;52661;51.364;6.054;2023-02-27T01:01:42;102394.56;;;0.16;100.00
65880;BME280;52661;51.364;6.054;2023-02-27T01:04:09;102391.56;;;0.23;100.00
65880;BME280;52661;51.364;6.054;2023-02-27T01:06:34;102390.25;;;0.25;100.00
65880;BME280;52661;51.364;6.054;2023-02-27T01:08:59;102387.91;;;0.14;100.00
65880;BME280;52661;51.364;6.054;2023-02-27T01:11:25;102382.50;;;0.19;100.00
65880;BME280;52661;51.364;6.054;2023-02-27T01:13:50;102389.47;;;0.15;100.00
65880;BME280;52661;51.364;6.054;2023-02-27T01:16:15;102392.44;;;0.13;100.00
65880;BME280;52661;51.364;6.054;2023-02-27T01:18:41;102391.38;;;0.14;100.00
65880;BME280;52661;51.364;6.054;2023-02-27T01:21:06;102399.41;;;0.09;100.00
65880;BME280;52661;51.364;6.054;2023-02-27T01:23:32;102389.53;;;0.10;100.00
65880;BME280;52661;51.364;6.054;2023-02-27T01:25:57;102390.56;;;0.14;100.00
65880;BME280;52661;51.364;6.054;2023-02-27T01:28:22;102398.28;;;0.15;100.00
65880;BME280;52661;51.364;6.054;2023-02-27T01:30:48;102396.72;;;0.14;100.00
65880;BME280;52661;51.364;6.054;2023-02-27T01:33:13;102398.84;;;0.12;100.00
65880;BME280;52661;51.364;6.054;2023-02-27T01:35:39;102397.47;;;0.20;100.00
65880;BME280;52661;51.364;6.054;2023-02-27T01:38:04;102398.91;;;0.07;100.00
65880;BME280;52661;51.364;6.054;2023-02-27T01:40:35;102393.72;;;-0.18;100.00
65880;BME280;52661;51.364;6.054;2023-02-27T01:43:01;102390.81;;;-0.27;100.00
65880;BME280;52661;51.364;6.054;2023-02-27T01:45:39;102389.19;;;-0.28;100.00
65880;BME280;52661;51.364;6.054;2023-02-27T01:50:37;102390.19;;;-0.14;100.00
65880;BME280;52661;51.364;6.054;2023-02-27T01:53:04;102391.78;;;-0.08;100.00
65880;BME280;52661;51.364;6.054;2023-02-27T01:55:33;102391.56;;;-0.21;100.00
65880;BME280;52661;51.364;6.054;2023-02-27T01:58:04;102389.75;;;-0.26;100.00
65880;BME280;52661;51.364;6.054;2023-02-27T02:00:30;102390.50;;;-0.25;100.00
65880;BME280;52661;51.364;6.054;2023-02-27T02:03:03;102389.75;;;-0.26;100.00
65880;BME280;52661;51.364;6.054;2023-02-27T02:05:31;102387.63;;;-0.34;100.00
65880;BME280;52661;51.364;6.054;2023-02-27T02:07:57;102390.06;;;-0.42;100.00
65880;BME280;52661;51.364;6.054;2023-02-27T02:10:23;102404.75;;;-0.50;100.00
65880;BME280;52661;51.364;6.054;2023-02-27T02:12:49;102390.34;;;-0.44;100.00
65880;BME280;52661;51.364;6.054;2023-02-27T02:15:14;102392.19;;;-0.39;100.00
65880;BME280;52661;51.364;6.054;2023-02-27T02:26:43;102400.94;;;-0.29;100.00
65880;BME280;52661;51.364;6.054;2023-02-27T02:29:38;102383.13;;;-0.38;100.00
65880;BME280;52661;51.364;6.054;2023-02-27T02:40:38;102384.41;;;-0.31;100.00
65880;BME280;52661;51.364;6.054;2023-02-27T02:43:14;102385.47;;;-0.32;100.00
65880;BME280;52661;51.364;6.054;2023-02-27T02:46:08;102388.44;;;-0.33;100.00
65880;BME280;52661;51.364;6.054;2023-02-27T02:51:34;102385.47;;;-0.27;100.00
65880;BME280;52661;51.364;6.054;2023-02-27T02:54:13;102387.09;;;-0.31;100.00
65880;BME280;52661;51.364;6.054;2023-02-27T02:56:50;102390.25;;;-0.29;100.00
65880;BME280;52661;51.364;6.054;2023-02-27T02:59:38;102394.34;;;-0.36;100.00
65880;BME280;52661;51.364;6.054;2023-02-27T03:02:09;102397.78;;;-0.36;100.00
65880;BME280;52661;51.364;6.054;2023-02-27T03:04:42;102396.72;;;-0.35;100.00
65880;BME280;52661;51.364;6.054;2023-02-27T03:07:15;102396.72;;;-0.35;100.00
65880;BME280;52661;51.364;6.054;2023-02-27T03:09:47;102405.00;;;-0.36;100.00
65880;BME280;52661;51.364;6.054;2023-02-27T03:12:18;102398.56;;;-0.35;100.00
65880;BME280;52661;51.364;6.054;2023-02-27T03:17:26;102409.00;;;-0.39;100.00
65880;BME280;52661;51.364;6.054;2023-02-27T03:19:58;102411.66;;;-0.39;100.00
65880;BME280;52661;51.364;6.054;2023-02-27T03:22:31;102414.63;;;-0.40;100.00
65880;BME280;52661;51.364;6.054;2023-02-27T03:25:00;102414.88;;;-0.42;100.00
65880;BME280;52661;51.364;6.054;2023-02-27T03:27:42;102414.38;;;-0.49;100.00
65880;BME280;52661;51.364;6.054;2023-02-27T03:30:13;102413.53;;;-0.39;100.00
65880;BME280;52661;51.364;6.054;2023-02-27T03:32:56;102415.16;;;-0.43;100.00
65880;BME280;52661;51.364;6.054;2023-02-27T03:35:29;102422.63;;;-0.45;100.00
65880;BME280;52661;51.364;6.054;2023-02-27T03:38:01;102422.13;;;-0.47;100.00
65880;BME280;52661;51.364;6.054;2023-02-27T03:40:48;102411.97;;;-0.51;100.00
65880;BME280;52661;51.364;6.054;2023-02-27T03:45:55;102419.50;;;-0.63;100.00
65880;BME280;52661;51.364;6.054;2023-02-27T03:48:23;102414.97;;;-0.67;100.00
65880;BME280;52661;51.364;6.054;2023-02-27T03:50:48;102418.50;;;-0.87;100.00
65880;BME280;52661;51.364;6.054;2023-02-27T03:53:27;102408.63;;;-0.96;100.00
65880;BME280;52661;51.364;6.054;2023-02-27T03:55:57;102416.34;;;-0.90;100.00
65880;BME280;52661;51.364;6.054;2023-02-27T03:58:24;102411.78;;;-0.79;100.00
65880;BME280;52661;51.364;6.054;2023-02-27T04:00:50;102420.03;;;-0.76;100.00
65880;BME280;52661;51.364;6.054;2023-02-27T04:03:15;102415.50;;;-0.70;100.00
65880;BME280;52661;51.364;6.054;2023-02-27T04:05:41;102412.56;;;-0.69;100.00
65880;BME280;52661;51.364;6.054;2023-02-27T04:08:17;102412.84;;;-0.65;100.00
65880;BME280;52661;51.364;6.054;2023-02-27T04:16:59;102421.88;;;-0.61;100.00
65880;BME280;52661;51.364;6.054;2023-02-27T04:22:12;102430.97;;;-0.62;100.00
65880;BME280;52661;51.364;6.054;2023-02-27T04:28:04;102446.16;;;-0.68;100.00
65880;BME280;52661;51.364;6.054;2023-02-27T04:35:50;102440.06;;;-0.73;100.00
65880;BME280;52661;51.364;6.054;2023-02-27T04:38:22;102443.78;;;-0.74;100.00
65880;BME280;52661;51.364;6.054;2023-02-27T04:41:04;102448.28;;;-0.60;100.00
65880;BME280;52661;51.364;6.054;2023-02-27T04:43:31;102445.63;;;-0.60;100.00
65880;BME280;52661;51.364;6.054;2023-02-27T04:45:59;102451.22;;;-0.71;100.00
65880;BME280;52661;51.364;6.054;2023-02-27T04:48:29;102452.03;;;-0.76;100.00
65880;BME280;52661;51.364;6.054;2023-02-27T04:51:01;102454.44;;;-0.79;100.00
65880;BME280;52661;51.364;6.054;2023-02-27T04:53:39;102453.91;;;-0.71;100.00
65880;BME280;52661;51.364;6.054;2023-02-27T04:56:15;102448.31;;;-0.70;100.00
65880;BME280;52661;51.364;6.054;2023-02-27T04:58:51;102450.44;;;-0.67;100.00
65880;BME280;52661;51.364;6.054;2023-02-27T05:01:35;102451.78;;;-0.69;100.00
65880;BME280;52661;51.364;6.054;2023-02-27T05:04:02;102455.53;;;-0.80;100.00
65880;BME280;52661;51.364;6.054;2023-02-27T05:06:31;102465.41;;;-0.91;100.00
65880;BME280;52661;51.364;6.054;2023-02-27T05:09:10;102466.47;;;-1.02;100.00
65880;BME280;52661;51.364;6.054;2023-02-27T05:12:03;102466.19;;;-1.01;100.00
65880;BME280;52661;51.364;6.054;2023-02-27T05:14:42;102466.22;;;-1.11;100.00
65880;BME280;52661;51.364;6.054;2023-02-27T05:20:01;102458.47;;;-0.92;100.00
65880;BME280;52661;51.364;6.054;2023-02-27T05:22:43;102461.41;;;-0.83;100.00
65880;BME280;52661;51.364;6.054;2023-02-27T05:25:22;102455.25;;;-0.94;100.00
65880;BME280;52661;51.364;6.054;2023-02-27T05:27:56;102468.31;;;-0.92;100.00
65880;BME280;52661;51.364;6.054;2023-02-27T05:30:38;102472.59;;;-0.81;100.00
65880;BME280;52661;51.364;6.054;2023-02-27T05:33:32;102478.19;;;-0.78;100.00
65880;BME280;52661;51.364;6.054;2023-02-27T05:36:08;102476.31;;;-0.98;100.00
65880;BME280;52661;51.364;6.054;2023-02-27T05:38:48;102479.00;;;-1.08;100.00
65880;BME280;52661;51.364;6.054;2023-02-27T05:41:19;102480.06;;;-1.14;100.00
65880;BME280;52661;51.364;6.054;2023-02-27T05:44:11;102487.00;;;-1.08;100.00
65880;BME280;52661;51.364;6.054;2023-02-27T05:46:37;102489.66;;;-0.98;100.00
65880;BME280;52661;51.364;6.054;2023-02-27T05:49:08;102485.66;;;-1.00;100.00
65880;BME280;52661;51.364;6.054;2023-02-27T05:51:36;102481.66;;;-0.98;100.00
65880;BME280;52661;51.364;6.054;2023-02-27T05:54:12;102488.84;;;-1.08;100.00
65880;BME280;52661;51.364;6.054;2023-02-27T05:56:43;102491.25;;;-1.22;100.00
65880;BME280;52661;51.364;6.054;2023-02-27T05:59:23;102495.00;;;-1.13;100.00
65880;BME280;52661;51.364;6.054;2023-02-27T06:01:51;102494.19;;;-1.18;100.00
65880;BME280;52661;51.364;6.054;2023-02-27T06:04:17;102496.59;;;-1.07;100.00
65880;BME280;52661;51.364;6.054;2023-02-27T06:06:43;102503.25;;;-1.09;100.00
65880;BME280;52661;51.364;6.054;2023-02-27T06:09:08;102494.72;;;-1.11;100.00
65880;BME280;52661;51.364;6.054;2023-02-27T06:11:34;102507.50;;;-1.18;100.00
65880;BME280;52661;51.364;6.054;2023-02-27T06:13:59;102515.50;;;-1.18;100.00
65880;BME280;52661;51.364;6.054;2023-02-27T06:16:24;102508.56;;;-1.29;100.00
65880;BME280;52661;51.364;6.054;2023-02-27T06:18:49;102510.69;;;-1.31;100.00
65880;BME280;52661;51.364;6.054;2023-02-27T06:21:15;102517.63;;;-1.30;100.00
65880;BME280;52661;51.364;6.054;2023-02-27T06:23:40;102522.94;;;-1.25;100.00
65880;BME280;52661;51.364;6.054;2023-02-27T06:26:05;102516.56;;;-1.19;100.00
65880;BME280;52661;51.364;6.054;2023-02-27T06:28:31;102527.22;;;-1.19;100.00
65880;BME280;52661;51.364;6.054;2023-02-27T06:30:56;102533.88;;;-1.22;100.00
65880;BME280;52661;51.364;6.054;2023-02-27T06:33:23;102524.81;;;-1.16;100.00
65880;BME280;52661;51.364;6.054;2023-02-27T06:35:49;102531.75;;;-1.20;100.00
65880;BME280;52661;51.364;6.054;2023-02-27T06:38:14;102530.97;;;-1.10;100.00
65880;BME280;52661;51.364;6.054;2023-02-27T06:40:40;102537.63;;;-1.08;100.00
65880;BME280;52661;51.364;6.054;2023-02-27T06:43:05;102533.34;;;-1.14;100.00
65880;BME280;52661;51.364;6.054;2023-02-27T06:45:30;102546.97;;;-1.05;100.00
65880;BME280;52661;51.364;6.054;2023-02-27T06:47:56;102544.25;;;-1.15;100.00
65880;BME280;52661;51.364;6.054;2023-02-27T06:50:21;102547.72;;;-1.25;100.00
65880;BME280;52661;51.364;6.054;2023-02-27T06:52:46;102546.66;;;-1.34;100.00
65880;BME280;52661;51.364;6.054;2023-02-27T06:55:12;102549.31;;;-1.34;100.00
65880;BME280;52661;51.364;6.054;2023-02-27T06:57:37;102558.63;;;-1.36;100.00
65880;BME280;52661;51.364;6.054;2023-02-27T07:00:04;102554.13;;;-1.31;100.00
65880;BME280;52661;51.364;6.054;2023-02-27T07:02:31;102557.03;;;-1.32;100.00
65880;BME280;52661;51.364;6.054;2023-02-27T07:04:56;102561.31;;;-1.26;100.00
65880;BME280;52661;51.364;6.054;2023-02-27T07:07:22;102565.31;;;-1.24;100.00
65880;BME280;52661;51.364;6.054;2023-02-27T07:09:47;102562.69;;;-1.09;100.00
65880;BME280;52661;51.364;6.054;2023-02-27T07:12:13;102566.13;;;-1.03;100.00
65880;BME280;52661;51.364;6.054;2023-02-27T07:14:38;102575.75;;;-1.02;100.00
65880;BME280;52661;51.364;6.054;2023-02-27T07:17:04;102573.06;;;-0.97;100.00
65880;BME280;52661;51.364;6.054;2023-02-27T07:19:30;102572.81;;;-0.95;100.00
65880;BME280;52661;51.364;6.054;2023-02-27T07:21:56;102586.94;;;-0.90;100.00
65880;BME280;52661;51.364;6.054;2023-02-27T07:24:22;102588.00;;;-0.81;100.00
65880;BME280;52661;51.364;6.054;2023-02-27T07:26:47;102596.00;;;-0.76;100.00
65880;BME280;52661;51.364;6.054;2023-02-27T07:29:12;102596.25;;;-0.72;100.00
65880;BME280;52661;51.364;6.054;2023-02-27T07:31:39;102585.63;;;-0.67;100.00
65880;BME280;52661;51.364;6.054;2023-02-27T07:34:04;102595.75;;;-0.74;100.00
65880;BME280;52661;51.364;6.054;2023-02-27T07:36:30;102592.81;;;-0.68;100.00
65880;BME280;52661;51.364;6.054;2023-02-27T07:38:56;102597.88;;;-0.66;100.00
65880;BME280;52661;51.364;6.054;2023-02-27T07:41:22;102599.75;;;-0.77;100.00
65880;BME280;52661;51.364;6.054;2023-02-27T07:43:48;102606.69;;;-0.71;100.00
65880;BME280;52661;51.364;6.054;2023-02-27T07:46:13;102594.41;;;-0.72;100.00
65880;BME280;52661;51.364;6.054;2023-02-27T07:48:38;102600.81;;;-0.68;100.00
65880;BME280;52661;51.364;6.054;2023-02-27T07:51:04;102598.41;;;-0.54;100.00
65880;BME280;52661;51.364;6.054;2023-02-27T07:53:29;102594.69;;;-0.48;100.00
65880;BME280;52661;51.364;6.054;2023-02-27T07:55:55;102600.25;;;-0.39;100.00
65880;BME280;52661;51.364;6.054;2023-02-27T07:58:20;102599.75;;;-0.36;100.00
65880;BME280;52661;51.364;6.054;2023-02-27T08:00:45;102603.44;;;-0.32;100.00
65880;BME280;52661;51.364;6.054;2023-02-27T08:03:11;102599.72;;;-0.26;100.00
65880;BME280;52661;51.364;6.054;2023-02-27T08:05:36;102594.91;;;-0.24;100.00
65880;BME280;52661;51.364;6.054;2023-02-27T08:08:02;102603.72;;;-0.19;100.00
65880;BME280;52661;51.364;6.054;2023-02-27T08:10:28;102593.81;;;-0.13;100.00
65880;BME280;52661;51.364;6.054;2023-02-27T08:12:53;102597.03;;;-0.11;100.00
65880;BME280;52661;51.364;6.054;2023-02-27T08:15:19;102606.88;;;-0.07;100.00
65880;BME280;52661;51.364;6.054;2023-02-27T08:17:45;102599.38;;;0.11;100.00
65880;BME280;52661;51.364;6.054;2023-02-27T08:20:11;102607.66;;;0.09;100.00
65880;BME280;52661;51.364;6.054;2023-02-27T08:22:38;102604.69;;;0.16;100.00
65880;BME280;52661;51.364;6.054;2023-02-27T08:25:05;102601.47;;;0.19;100.00
65880;BME280;52661;51.364;6.054;2023-02-27T08:27:34;102604.94;;;0.24;100.00
65880;BME280;52661;51.364;6.054;2023-02-27T08:30:00;102603.56;;;0.32;100.00
65880;BME280;52661;51.364;6.054;2023-02-27T08:32:26;102599.81;;;0.38;100.00
65880;BME280;52661;51.364;6.054;2023-02-27T08:34:51;102605.91;;;0.43;100.00
65880;BME280;52661;51.364;6.054;2023-02-27T08:37:17;102605.63;;;0.45;100.00
65880;BME280;52661;51.364;6.054;2023-02-27T08:39:42;102603.22;;;0.48;100.00
65880;BME280;52661;51.364;6.054;2023-02-27T08:42:07;102605.63;;;0.50;100.00
65880;BME280;52661;51.364;6.054;2023-02-27T08:44:33;102604.53;;;0.56;100.00
65880;BME280;52661;51.364;6.054;2023-02-27T08:46:58;102609.56;;;0.63;100.00
65880;BME280;52661;51.364;6.054;2023-02-27T08:49:24;102613.28;;;0.67;100.00
65880;BME280;52661;51.364;6.054;2023-02-27T08:51:50;102616.75;;;0.72;100.00
65880;BME280;52661;51.364;6.054;2023-02-27T08:54:16;102618.56;;;0.82;100.00
65880;BME280;52661;51.364;6.054;2023-02-27T08:56:42;102624.94;;;0.86;100.00
65880;BME280;52661;51.364;6.054;2023-02-27T08:59:08;102620.34;;;0.96;100.00
65880;BME280;52661;51.364;6.054;2023-02-27T09:01:33;102617.34;;;1.08;100.00
65880;BME280;52661;51.364;6.054;2023-02-27T09:04:03;102620.25;;;1.12;100.00
65880;BME280;52661;51.364;6.054;2023-02-27T09:06:29;102625.28;;;1.18;100.00
65880;BME280;52661;51.364;6.054;2023-02-27T09:08:56;102628.44;;;1.25;100.00
65880;BME280;52661;51.364;6.054;2023-02-27T09:11:22;102624.59;;;1.36;100.00
65880;BME280;52661;51.364;6.054;2023-02-27T09:13:48;102626.97;;;1.43;100.00
65880;BME280;52661;51.364;6.054;2023-02-27T09:16:13;102622.97;;;1.40;100.00
65880;BME280;52661;51.364;6.054;2023-02-27T09:18:38;102617.00;;;1.48;100.00
65880;BME280;52661;51.364;6.054;2023-02-27T09:21:04;102611.66;;;1.48;100.00
65880;BME280;52661;51.364;6.054;2023-02-27T09:23:29;102615.84;;;1.60;100.00
65880;BME280;52661;51.364;6.054;2023-02-27T09:25:55;102609.31;;;1.71;100.00
65880;BME280;52661;51.364;6.054;2023-02-27T09:28:20;102616.22;;;1.77;100.00
65880;BME280;52661;51.364;6.054;2023-02-27T09:30:46;102614.19;;;1.92;100.00
65880;BME280;52661;51.364;6.054;2023-02-27T09:33:11;102620.88;;;1.95;100.00
65880;BME280;52661;51.364;6.054;2023-02-27T09:35:36;102627.22;;;1.99;100.00
65880;BME280;52661;51.364;6.054;2023-02-27T09:38:02;102623.91;;;2.12;100.00
65880;BME280;52661;51.364;6.054;2023-02-27T09:40:32;102631.81;;;2.22;100.00
65880;BME280;52661;51.364;6.054;2023-02-27T09:43:09;102632.03;;;2.26;100.00
65880;BME280;52661;51.364;6.054;2023-02-27T09:45:36;102638.16;;;2.31;100.00
65880;BME280;52661;51.364;6.054;2023-02-27T09:50:46;102636.28;;;2.51;100.00
65880;BME280;52661;51.364;6.054;2023-02-27T09:53:39;102634.25;;;2.42;100.00
65880;BME280;52661;51.364;6.054;2023-02-27T09:59:33;102635.75;;;2.72;100.00
65880;BME280;52661;51.364;6.054;2023-02-27T10:03:02;102630.38;;;2.72;100.00
65880;BME280;52661;51.364;6.054;2023-02-27T10:15:42;102626.06;;;2.95;100.00
65880;BME280;52661;51.364;6.054;2023-02-27T10:18:12;102622.34;;;3.10;100.00
65880;BME280;52661;51.364;6.054;2023-02-27T10:20:44;102618.59;;;3.11;100.00
65880;BME280;52661;51.364;6.054;2023-02-27T10:23:16;102617.19;;;3.32;100.00
65880;BME280;52661;51.364;6.054;2023-02-27T10:25:45;102619.72;;;3.23;100.00
65880;BME280;52661;51.364;6.054;2023-02-27T10:28:14;102613.34;;;3.19;100.00
65880;BME280;52661;51.364;6.054;2023-02-27T10:30:40;102612.97;;;3.26;100.00
65880;BME280;52661;51.364;6.054;2023-02-27T10:33:36;102615.44;;;3.55;100.00
65880;BME280;52661;51.364;6.054;2023-02-27T10:36:03;102602.97;;;3.64;100.00
65880;BME280;52661;51.364;6.054;2023-02-27T10:38:38;102605.81;;;3.54;100.00
65880;BME280;52661;51.364;6.054;2023-02-27T10:41:10;102605.84;;;3.67;100.00
65880;BME280;52661;51.364;6.054;2023-02-27T10:43:36;102606.91;;;3.53;99.70
65880;BME280;52661;51.364;6.054;2023-02-27T10:46:10;102609.88;;;3.51;100.00
65880;BME280;52661;51.364;6.054;2023-02-27T10:48:36;102607.13;;;3.70;100.00
65880;BME280;52661;51.364;6.054;2023-02-27T10:51:22;102604.38;;;3.88;100.00
65880;BME280;52661;51.364;6.054;2023-02-27T10:53:49;102599.50;;;3.77;98.75
65880;BME280;52661;51.364;6.054;2023-02-27T10:56:24;102605.81;;;3.54;98.03
65880;BME280;52661;51.364;6.054;2023-02-27T10:59:15;102603.53;;;3.47;98.79
65880;BME280;52661;51.364;6.054;2023-02-27T11:01:43;102605.78;;;3.86;100.00
65880;BME280;52661;51.364;6.054;2023-02-27T11:04:11;102602.19;;;3.77;100.00
65880;BME280;52661;51.364;6.054;2023-02-27T11:06:37;102600.28;;;3.64;99.77
65880;BME280;52661;51.364;6.054;2023-02-27T11:09:10;102603.00;;;3.91;100.00
65880;BME280;52661;51.364;6.054;2023-02-27T11:11:37;102589.28;;;4.06;100.00
65880;BME280;52661;51.364;6.054;2023-02-27T11:16:51;102594.03;;;3.82;97.12
65880;BME280;52661;51.364;6.054;2023-02-27T11:19:32;102593.16;;;4.00;98.82
65880;BME280;52661;51.364;6.054;2023-02-27T11:22:19;102585.09;;;4.00;95.82
65880;BME280;52661;51.364;6.054;2023-02-27T11:24:46;102583.59;;;4.35;96.12
65880;BME280;52661;51.364;6.054;2023-02-27T11:27:30;102583.56;;;4.62;97.03
65880;BME280;52661;51.364;6.054;2023-02-27T11:30:19;102574.84;;;4.79;97.18
65880;BME280;52661;51.364;6.054;2023-02-27T11:32:51;102572.41;;;4.91;95.12
65880;BME280;52661;51.364;6.054;2023-02-27T11:35:30;102570.22;;;4.57;91.53
65880;BME280;52661;51.364;6.054;2023-02-27T11:37:59;102573.13;;;4.20;93.54
65880;BME280;52661;51.364;6.054;2023-02-27T11:40:29;102578.25;;;3.94;93.65
65880;BME280;52661;51.364;6.054;2023-02-27T11:42:59;102571.47;;;3.83;93.22
65880;BME280;52661;51.364;6.054;2023-02-27T11:45:38;102571.56;;;3.78;93.46
65880;BME280;52661;51.364;6.054;2023-02-27T11:48:15;102565.69;;;3.76;93.48
65880;BME280;52661;51.364;6.054;2023-02-27T11:51:02;102563.78;;;3.76;93.53
65880;BME280;52661;51.364;6.054;2023-02-27T11:54:05;102566.47;;;3.76;94.35
65880;BME280;52661;51.364;6.054;2023-02-27T11:56:45;102565.97;;;3.88;93.85
65880;BME280;52661;51.364;6.054;2023-02-27T12:04:43;102550.66;;;3.88;93.84
65880;BME280;52661;51.364;6.054;2023-02-27T12:07:20;102555.25;;;3.88;94.38
65880;BME280;52661;51.364;6.054;2023-02-27T12:17:44;102556.75;;;4.57;90.39
65880;BME280;52661;51.364;6.054;2023-02-27T12:20:29;102555.03;;;4.97;92.44
65880;BME280;52661;51.364;6.054;2023-02-27T12:22:56;102541.69;;;5.36;88.05
65880;BME280;52661;51.364;6.054;2023-02-27T12:25:43;102537.81;;;5.20;86.19
65880;BME280;52661;51.364;6.054;2023-02-27T12:28:26;102533.06;;;5.26;88.21
65880;BME280;52661;51.364;6.054;2023-02-27T12:33:53;102534.72;;;4.69;87.27
65880;BME280;52661;51.364;6.054;2023-02-27T12:36:20;102535.66;;;4.51;87.49
65880;BME280;52661;51.364;6.054;2023-02-27T12:38:45;102534.97;;;4.45;90.11
65880;BME280;52661;51.364;6.054;2023-02-27T12:41:31;102537.09;;;4.48;90.97
65880;BME280;52661;51.364;6.054;2023-02-27T12:44:22;102536.84;;;4.58;90.92
65880;BME280;52661;51.364;6.054;2023-02-27T12:50:08;102530.19;;;4.56;88.02
65880;BME280;52661;51.364;6.054;2023-02-27T12:55:25;102525.78;;;4.60;89.32
65880;BME280;52661;51.364;6.054;2023-02-27T13:00:38;102508.13;;;4.67;87.68
65880;BME280;52661;51.364;6.054;2023-02-27T13:03:14;102508.34;;;4.57;82.56
65880;BME280;52661;51.364;6.054;2023-02-27T13:05:45;102508.44;;;4.66;87.10
65880;BME280;52661;51.364;6.054;2023-02-27T13:13:46;102516.09;;;5.17;82.55
65880;BME280;52661;51.364;6.054;2023-02-27T13:16:16;102510.53;;;5.44;82.35
65880;BME280;52661;51.364;6.054;2023-02-27T13:18:59;102500.34;;;6.20;80.80
65880;BME280;52661;51.364;6.054;2023-02-27T13:21:52;102509.25;;;5.81;80.20
65880;BME280;52661;51.364;6.054;2023-02-27T13:27:02;102504.44;;;5.30;81.78
65880;BME280;52661;51.364;6.054;2023-02-27T13:29:38;102507.03;;;5.13;84.26
65880;BME280;52661;51.364;6.054;2023-02-27T13:32:25;102507.28;;;5.03;85.28
65880;BME280;52661;51.364;6.054;2023-02-27T13:35:12;102500.25;;;4.93;84.82
65880;BME280;52661;51.364;6.054;2023-02-27T13:37:50;102501.34;;;4.92;82.22
65880;BME280;52661;51.364;6.054;2023-02-27T13:40:32;102502.09;;;5.76;76.84
65880;BME280;52661;51.364;6.054;2023-02-27T13:43:00;102501.72;;;5.61;78.53
65880;BME280;52661;51.364;6.054;2023-02-27T13:48:39;102497.50;;;5.37;77.18
65880;BME280;52661;51.364;6.054;2023-02-27T13:51:07;102501.41;;;6.02;77.84
65880;BME280;52661;51.364;6.054;2023-02-27T13:53:35;102504.66;;;6.47;75.41
65880;BME280;52661;51.364;6.054;2023-02-27T13:56:19;102503.69;;;6.60;74.56
65880;BME280;52661;51.364;6.054;2023-02-27T13:58:45;102496.22;;;6.82;70.46
65880;BME280;52661;51.364;6.054;2023-02-27T14:01:22;102495.56;;;7.03;70.52
65880;BME280;52661;51.364;6.054;2023-02-27T14:03:53;102496.41;;;7.41;69.89
65880;BME280;52661;51.364;6.054;2023-02-27T14:06:22;102487.22;;;7.33;69.27
65880;BME280;52661;51.364;6.054;2023-02-27T14:08:49;102494.06;;;7.69;67.63
65880;BME280;52661;51.364;6.054;2023-02-27T14:11:24;102490.38;;;7.35;66.15
65880;BME280;52661;51.364;6.054;2023-02-27T14:21:50;102481.88;;;7.63;65.79
65880;BME280;52661;51.364;6.054;2023-02-27T14:24:17;102486.47;;;7.62;65.16
65880;BME280;52661;51.364;6.054;2023-02-27T14:26:43;102478.41;;;7.54;65.43
65880;BME280;52661;51.364;6.054;2023-02-27T14:29:23;102483.50;;;7.47;66.99
65880;BME280;52661;51.364;6.054;2023-02-27T14:31:50;102482.44;;;7.77;66.68
65880;BME280;52661;51.364;6.054;2023-02-27T14:34:20;102480.81;;;7.84;64.42
65880;BME280;52661;51.364;6.054;2023-02-27T14:36:49;102476.84;;;7.44;65.71
65880;BME280;52661;51.364;6.054;2023-02-27T14:39:23;102477.09;;;7.22;63.40
65880;BME280;52661;51.364;6.054;2023-02-27T14:41:57;102472.78;;;6.40;64.95
65880;BME280;52661;51.364;6.054;2023-02-27T14:44:27;102478.75;;;6.97;67.31
65880;BME280;52661;51.364;6.054;2023-02-27T14:46:56;102484.38;;;7.30;67.50
65880;BME280;52661;51.364;6.054;2023-02-27T14:49:41;102486.22;;;7.38;65.61
65880;BME280;52661;51.364;6.054;2023-02-27T14:52:20;102463.34;;;7.44;66.35
65880;BME280;52661;51.364;6.054;2023-02-27T14:54:47;102474.59;;;7.55;65.46
65880;BME280;52661;51.364;6.054;2023-02-27T14:57:23;102476.56;;;7.37;65.59